aviador You're here:

YSCB Decoded Metar

CANBERRA in AUSTRALIA
Report Time2018-05-28 04:30:00
UTC Time2018-05-28 04:49:44
Flight Rules vfr VFR
Wind340° at 09 kt
W.Decomp.*RWY 35: 8.3 kt HW 3.4 kt LCW
RWY 30: 7.9 kt HW 4.2 kt RCW
W.Rank340° ranks 6
Current wind is above 340° avg. (8.9)
Visibility9999 m
Phenomena:N/A
Clouds:N/A
Expected CloudBase > 4,400 ft AGL from Temp-Dew spread
CeilingNone
Temp16°C (ISA +5)
Dew Point05°C (48% RH)
AAT11.6°C
QNH1022 hPa
Density Alt2,274 ft
Elevation1,893 ft
Report Wrong Elevation
Raw Report
YSCB 280430Z 34009KT CAVOK 16/05 Q1022 NOSIG=

Extra information for YSCB:More info

Metar Taf Metar & Taf Last 4 Metars F.Rules Stats Wind Profile Meteogram Temp Stats Airport Information Weather charts Add Link Nearby VenuesMetar ALERT Operation Metar Decoded Social comments